sensor_id;sensor_type;location;lat;lon;timestamp;pressure;altitude;pressure_sealevel;temperature
19040;BMP180;9652;49.014;12.052;2023-04-03T00:00:23;98487.00;;;7.60
19040;BMP180;9652;49.014;12.052;2023-04-03T00:02:50;98490.00;;;7.60
19040;BMP180;9652;49.014;12.052;2023-04-03T00:05:17;98484.00;;;7.60
19040;BMP180;9652;49.014;12.052;2023-04-03T00:07:44;98475.00;;;7.60
19040;BMP180;9652;49.014;12.052;2023-04-03T00:10:11;98476.00;;;7.50
19040;BMP180;9652;49.014;12.052;2023-04-03T00:12:39;98487.00;;;7.50
19040;BMP180;9652;49.014;12.052;2023-04-03T00:15:07;98489.00;;;7.50
19040;BMP180;9652;49.014;12.052;2023-04-03T00:17:36;98494.00;;;7.50
19040;BMP180;9652;49.014;12.052;2023-04-03T00:20:05;98485.00;;;7.50
19040;BMP180;9652;49.014;12.052;2023-04-03T00:22:32;98481.00;;;7.50
19040;BMP180;9652;49.014;12.052;2023-04-03T00:24:59;98483.00;;;7.50
19040;BMP180;9652;49.014;12.052;2023-04-03T00:27:26;98477.00;;;7.50
19040;BMP180;9652;49.014;12.052;2023-04-03T00:29:53;98494.00;;;7.40
19040;BMP180;9652;49.014;12.052;2023-04-03T00:32:21;98498.00;;;7.40
19040;BMP180;9652;49.014;12.052;2023-04-03T00:34:50;98496.00;;;7.40
19040;BMP180;9652;49.014;12.052;2023-04-03T00:37:17;98430.00;;;7.40
19040;BMP180;9652;49.014;12.052;2023-04-03T00:39:44;98476.00;;;7.30
19040;BMP180;9652;49.014;12.052;2023-04-03T00:42:11;98479.00;;;7.30
19040;BMP180;9652;49.014;12.052;2023-04-03T00:45:30;98501.00;;;7.30
19040;BMP180;9652;49.014;12.052;2023-04-03T00:48:01;98474.00;;;7.30
19040;BMP180;9652;49.014;12.052;2023-04-03T00:50:37;98484.00;;;7.30
19040;BMP180;9652;49.014;12.052;2023-04-03T00:53:09;98491.00;;;7.30
19040;BMP180;9652;49.014;12.052;2023-04-03T00:55:38;98503.00;;;7.20
19040;BMP180;9652;49.014;12.052;2023-04-03T00:58:07;98477.00;;;7.20
19040;BMP180;9652;49.014;12.052;2023-04-03T01:00:40;98434.00;;;7.20
19040;BMP180;9652;49.014;12.052;2023-04-03T01:03:09;98492.00;;;7.20
19040;BMP180;9652;49.014;12.052;2023-04-03T01:05:40;98487.00;;;7.10
19040;BMP180;9652;49.014;12.052;2023-04-03T01:08:07;98471.00;;;7.10
19040;BMP180;9652;49.014;12.052;2023-04-03T01:10:35;98477.00;;;7.10
19040;BMP180;9652;49.014;12.052;2023-04-03T01:13:20;98411.00;;;7.10
19040;BMP180;9652;49.014;12.052;2023-04-03T01:15:48;98485.00;;;7.10
19040;BMP180;9652;49.014;12.052;2023-04-03T01:18:15;98466.00;;;7.10
19040;BMP180;9652;49.014;12.052;2023-04-03T01:24:17;98485.00;;;7.00
19040;BMP180;9652;49.014;12.052;2023-04-03T01:26:49;98482.00;;;7.10
19040;BMP180;9652;49.014;12.052;2023-04-03T01:29:16;98481.00;;;7.00
19040;BMP180;9652;49.014;12.052;2023-04-03T01:31:51;98498.00;;;7.00
19040;BMP180;9652;49.014;12.052;2023-04-03T01:34:20;98492.00;;;7.00
19040;BMP180;9652;49.014;12.052;2023-04-03T01:36:49;98507.00;;;7.00
19040;BMP180;9652;49.014;12.052;2023-04-03T01:39:17;98508.00;;;7.00
19040;BMP180;9652;49.014;12.052;2023-04-03T01:41:44;98515.00;;;7.00
19040;BMP180;9652;49.014;12.052;2023-04-03T01:44:32;98498.00;;;7.00
19040;BMP180;9652;49.014;12.052;2023-04-03T01:47:01;98510.00;;;7.00
19040;BMP180;9652;49.014;12.052;2023-04-03T01:49:29;98510.00;;;7.00
19040;BMP180;9652;49.014;12.052;2023-04-03T01:51:56;98507.00;;;7.00
19040;BMP180;9652;49.014;12.052;2023-04-03T01:54:24;98513.00;;;7.00
19040;BMP180;9652;49.014;12.052;2023-04-03T01:56:51;98507.00;;;7.00
19040;BMP180;9652;49.014;12.052;2023-04-03T01:59:20;98507.00;;;7.00
19040;BMP180;9652;49.014;12.052;2023-04-03T02:01:47;98516.00;;;7.00
19040;BMP180;9652;49.014;12.052;2023-04-03T02:04:15;98488.00;;;7.00
19040;BMP180;9652;49.014;12.052;2023-04-03T02:06:42;98514.00;;;7.00
19040;BMP180;9652;49.014;12.052;2023-04-03T02:09:10;98516.00;;;7.00
19040;BMP180;9652;49.014;12.052;2023-04-03T02:11:37;98509.00;;;7.00
19040;BMP180;9652;49.014;12.052;2023-04-03T02:14:04;98490.00;;;7.00
19040;BMP180;9652;49.014;12.052;2023-04-03T02:16:31;98513.00;;;7.10
19040;BMP180;9652;49.014;12.052;2023-04-03T02:18:58;98512.00;;;7.10
19040;BMP180;9652;49.014;12.052;2023-04-03T02:21:27;98487.00;;;7.10
19040;BMP180;9652;49.014;12.052;2023-04-03T02:23:54;98516.00;;;7.10
19040;BMP180;9652;49.014;12.052;2023-04-03T02:26:21;98514.00;;;7.10
19040;BMP180;9652;49.014;12.052;2023-04-03T02:28:48;98509.00;;;7.10
19040;BMP180;9652;49.014;12.052;2023-04-03T02:31:16;98510.00;;;7.10
19040;BMP180;9652;49.014;12.052;2023-04-03T02:33:45;98480.00;;;7.10
19040;BMP180;9652;49.014;12.052;2023-04-03T02:36:15;98508.00;;;7.10
19040;BMP180;9652;49.014;12.052;2023-04-03T02:38:48;98453.00;;;7.10
19040;BMP180;9652;49.014;12.052;2023-04-03T02:41:15;98508.00;;;7.10
19040;BMP180;9652;49.014;12.052;2023-04-03T02:43:42;98499.00;;;7.10
19040;BMP180;9652;49.014;12.052;2023-04-03T02:46:09;98489.00;;;7.10
19040;BMP180;9652;49.014;12.052;2023-04-03T02:48:37;98516.00;;;7.00
19040;BMP180;9652;49.014;12.052;2023-04-03T02:51:04;98517.00;;;7.00
19040;BMP180;9652;49.014;12.052;2023-04-03T02:53:31;98485.00;;;7.00
19040;BMP180;9652;49.014;12.052;2023-04-03T02:56:05;98516.00;;;7.00
19040;BMP180;9652;49.014;12.052;2023-04-03T02:58:33;98511.00;;;7.00
19040;BMP180;9652;49.014;12.052;2023-04-03T03:01:03;98497.00;;;7.00
19040;BMP180;9652;49.014;12.052;2023-04-03T03:03:30;98513.00;;;7.00
19040;BMP180;9652;49.014;12.052;2023-04-03T03:06:02;98512.00;;;7.00
19040;BMP180;9652;49.014;12.052;2023-04-03T03:08:29;98506.00;;;7.00
19040;BMP180;9652;49.014;12.052;2023-04-03T03:10:57;98511.00;;;7.00
19040;BMP180;9652;49.014;12.052;2023-04-03T03:13:26;98516.00;;;7.00
19040;BMP180;9652;49.014;12.052;2023-04-03T03:15:53;98525.00;;;7.00
19040;BMP180;9652;49.014;12.052;2023-04-03T03:18:21;98516.00;;;7.00
19040;BMP180;9652;49.014;12.052;2023-04-03T03:20:51;98517.00;;;7.00
19040;BMP180;9652;49.014;12.052;2023-04-03T03:23:21;98513.00;;;7.00
19040;BMP180;9652;49.014;12.052;2023-04-03T03:25:49;98491.00;;;7.00
19040;BMP180;9652;49.014;12.052;2023-04-03T03:28:16;98502.00;;;7.00
19040;BMP180;9652;49.014;12.052;2023-04-03T03:30:44;98517.00;;;7.00
19040;BMP180;9652;49.014;12.052;2023-04-03T03:33:12;98483.00;;;7.00
19040;BMP180;9652;49.014;12.052;2023-04-03T03:35:39;98516.00;;;6.90
19040;BMP180;9652;49.014;12.052;2023-04-03T03:38:07;98475.00;;;6.90
19040;BMP180;9652;49.014;12.052;2023-04-03T03:40:34;98506.00;;;7.00
19040;BMP180;9652;49.014;12.052;2023-04-03T03:43:02;98501.00;;;7.00
19040;BMP180;9652;49.014;12.052;2023-04-03T03:45:30;98403.00;;;7.00
19040;BMP180;9652;49.014;12.052;2023-04-03T03:47:58;98513.00;;;7.00
19040;BMP180;9652;49.014;12.052;2023-04-03T03:50:25;98506.00;;;7.00
19040;BMP180;9652;49.014;12.052;2023-04-03T03:52:53;98507.00;;;6.90
19040;BMP180;9652;49.014;12.052;2023-04-03T03:55:20;98514.00;;;6.90
19040;BMP180;9652;49.014;12.052;2023-04-03T03:57:51;98507.00;;;6.90
19040;BMP180;9652;49.014;12.052;2023-04-03T04:00:20;98503.00;;;6.80
19040;BMP180;9652;49.014;12.052;2023-04-03T04:02:53;98499.00;;;6.80
19040;BMP180;9652;49.014;12.052;2023-04-03T04:05:24;98503.00;;;6.80
19040;BMP180;9652;49.014;12.052;2023-04-03T04:07:52;98508.00;;;6.80
19040;BMP180;9652;49.014;12.052;2023-04-03T04:10:20;98447.00;;;6.80
19040;BMP180;9652;49.014;12.052;2023-04-03T04:12:47;98497.00;;;6.80
19040;BMP180;9652;49.014;12.052;2023-04-03T04:15:15;98510.00;;;6.80
19040;BMP180;9652;49.014;12.052;2023-04-03T04:17:43;98452.00;;;6.60
19040;BMP180;9652;49.014;12.052;2023-04-03T04:20:11;98516.00;;;6.80
19040;BMP180;9652;49.014;12.052;2023-04-03T04:22:41;98515.00;;;6.80
19040;BMP180;9652;49.014;12.052;2023-04-03T04:25:09;98519.00;;;6.70
19040;BMP180;9652;49.014;12.052;2023-04-03T04:27:38;98523.00;;;6.70
19040;BMP180;9652;49.014;12.052;2023-04-03T04:30:07;98519.00;;;6.70
19040;BMP180;9652;49.014;12.052;2023-04-03T04:32:34;98519.00;;;6.70
19040;BMP180;9652;49.014;12.052;2023-04-03T04:35:02;98487.00;;;6.60
19040;BMP180;9652;49.014;12.052;2023-04-03T04:37:32;98513.00;;;6.60
19040;BMP180;9652;49.014;12.052;2023-04-03T04:40:00;98517.00;;;6.60
19040;BMP180;9652;49.014;12.052;2023-04-03T04:42:28;98483.00;;;6.60
19040;BMP180;9652;49.014;12.052;2023-04-03T04:44:55;98520.00;;;6.60
19040;BMP180;9652;49.014;12.052;2023-04-03T04:47:23;98520.00;;;6.50
19040;BMP180;9652;49.014;12.052;2023-04-03T04:49:51;98517.00;;;6.50
19040;BMP180;9652;49.014;12.052;2023-04-03T04:52:18;98517.00;;;6.50
19040;BMP180;9652;49.014;12.052;2023-04-03T04:54:45;98525.00;;;6.50
19040;BMP180;9652;49.014;12.052;2023-04-03T04:57:13;98518.00;;;6.50
19040;BMP180;9652;49.014;12.052;2023-04-03T04:59:41;98525.00;;;6.60
19040;BMP180;9652;49.014;12.052;2023-04-03T05:02:09;98484.00;;;6.60
19040;BMP180;9652;49.014;12.052;2023-04-03T05:04:38;98543.00;;;6.60
19040;BMP180;9652;49.014;12.052;2023-04-03T05:07:11;98524.00;;;6.60
19040;BMP180;9652;49.014;12.052;2023-04-03T05:09:38;98524.00;;;6.60
19040;BMP180;9652;49.014;12.052;2023-04-03T05:12:08;98518.00;;;6.60
19040;BMP180;9652;49.014;12.052;2023-04-03T05:14:42;98527.00;;;6.60
19040;BMP180;9652;49.014;12.052;2023-04-03T05:17:10;98505.00;;;6.60
19040;BMP180;9652;49.014;12.052;2023-04-03T05:19:41;98539.00;;;6.60
19040;BMP180;9652;49.014;12.052;2023-04-03T05:22:09;98496.00;;;6.60
19040;BMP180;9652;49.014;12.052;2023-04-03T05:24:37;98526.00;;;6.50
19040;BMP180;9652;49.014;12.052;2023-04-03T05:27:04;98534.00;;;6.50
19040;BMP180;9652;49.014;12.052;2023-04-03T05:29:35;98516.00;;;6.50
19040;BMP180;9652;49.014;12.052;2023-04-03T05:32:05;98535.00;;;6.60
19040;BMP180;9652;49.014;12.052;2023-04-03T05:34:32;98531.00;;;6.60
19040;BMP180;9652;49.014;12.052;2023-04-03T05:37:00;98521.00;;;6.60
19040;BMP180;9652;49.014;12.052;2023-04-03T05:39:29;98544.00;;;6.60
19040;BMP180;9652;49.014;12.052;2023-04-03T05:41:57;98537.00;;;6.70
19040;BMP180;9652;49.014;12.052;2023-04-03T05:44:24;98538.00;;;6.70
19040;BMP180;9652;49.014;12.052;2023-04-03T05:46:53;98542.00;;;6.70
19040;BMP180;9652;49.014;12.052;2023-04-03T05:49:22;98542.00;;;6.70
19040;BMP180;9652;49.014;12.052;2023-04-03T05:51:49;98527.00;;;6.70
19040;BMP180;9652;49.014;12.052;2023-04-03T05:54:25;98496.00;;;6.70
19040;BMP180;9652;49.014;12.052;2023-04-03T05:56:59;98514.00;;;6.70
19040;BMP180;9652;49.014;12.052;2023-04-03T05:59:27;98563.00;;;6.80
19040;BMP180;9652;49.014;12.052;2023-04-03T06:01:57;98545.00;;;6.80
19040;BMP180;9652;49.014;12.052;2023-04-03T06:04:26;98548.00;;;6.80
19040;BMP180;9652;49.014;12.052;2023-04-03T06:06:56;98553.00;;;6.80
19040;BMP180;9652;49.014;12.052;2023-04-03T06:09:27;98556.00;;;6.90
19040;BMP180;9652;49.014;12.052;2023-04-03T06:11:56;98548.00;;;6.80
19040;BMP180;9652;49.014;12.052;2023-04-03T06:14:25;98553.00;;;6.90
19040;BMP180;9652;49.014;12.052;2023-04-03T06:16:52;98550.00;;;6.90
19040;BMP180;9652;49.014;12.052;2023-04-03T06:19:20;98555.00;;;6.90
19040;BMP180;9652;49.014;12.052;2023-04-03T06:21:52;98555.00;;;6.90
19040;BMP180;9652;49.014;12.052;2023-04-03T06:24:20;98563.00;;;7.00
19040;BMP180;9652;49.014;12.052;2023-04-03T06:26:47;98559.00;;;7.00
19040;BMP180;9652;49.014;12.052;2023-04-03T06:29:15;98516.00;;;7.10
19040;BMP180;9652;49.014;12.052;2023-04-03T06:31:42;98565.00;;;7.10
19040;BMP180;9652;49.014;12.052;2023-04-03T06:34:09;98558.00;;;7.20
19040;BMP180;9652;49.014;12.052;2023-04-03T06:36:37;98559.00;;;7.20
19040;BMP180;9652;49.014;12.052;2023-04-03T06:39:06;98536.00;;;7.30
19040;BMP180;9652;49.014;12.052;2023-04-03T06:41:34;98569.00;;;7.40
19040;BMP180;9652;49.014;12.052;2023-04-03T06:44:01;98563.00;;;7.40
19040;BMP180;9652;49.014;12.052;2023-04-03T06:46:29;98566.00;;;7.50
19040;BMP180;9652;49.014;12.052;2023-04-03T06:48:56;98567.00;;;7.50
19040;BMP180;9652;49.014;12.052;2023-04-03T06:51:26;98564.00;;;7.50
19040;BMP180;9652;49.014;12.052;2023-04-03T06:53:58;98568.00;;;7.60
19040;BMP180;9652;49.014;12.052;2023-04-03T06:56:27;98584.00;;;7.60
19040;BMP180;9652;49.014;12.052;2023-04-03T06:58:55;98571.00;;;7.70
19040;BMP180;9652;49.014;12.052;2023-04-03T07:01:24;98586.00;;;7.70
19040;BMP180;9652;49.014;12.052;2023-04-03T07:03:54;98588.00;;;7.90
19040;BMP180;9652;49.014;12.052;2023-04-03T07:06:22;98599.00;;;7.90
19040;BMP180;9652;49.014;12.052;2023-04-03T07:08:52;98594.00;;;7.90
19040;BMP180;9652;49.014;12.052;2023-04-03T07:11:20;98589.00;;;7.90
19040;BMP180;9652;49.014;12.052;2023-04-03T07:13:49;98613.00;;;8.00
19040;BMP180;9652;49.014;12.052;2023-04-03T07:16:16;98545.00;;;8.00
19040;BMP180;9652;49.014;12.052;2023-04-03T07:18:44;98603.00;;;8.00
19040;BMP180;9652;49.014;12.052;2023-04-03T07:21:11;98527.00;;;8.00
19040;BMP180;9652;49.014;12.052;2023-04-03T07:23:39;98608.00;;;8.10
19040;BMP180;9652;49.014;12.052;2023-04-03T07:26:06;98623.00;;;8.20
19040;BMP180;9652;49.014;12.052;2023-04-03T07:28:34;98618.00;;;8.20
19040;BMP180;9652;49.014;12.052;2023-04-03T07:31:06;98628.00;;;8.20
19040;BMP180;9652;49.014;12.052;2023-04-03T07:33:35;98598.00;;;8.20
19040;BMP180;9652;49.014;12.052;2023-04-03T07:36:03;98628.00;;;8.30
19040;BMP180;9652;49.014;12.052;2023-04-03T07:38:33;98642.00;;;8.30
19040;BMP180;9652;49.014;12.052;2023-04-03T07:41:01;98629.00;;;8.40
19040;BMP180;9652;49.014;12.052;2023-04-03T07:43:28;98625.00;;;8.40
19040;BMP180;9652;49.014;12.052;2023-04-03T07:45:55;98643.00;;;8.50
19040;BMP180;9652;49.014;12.052;2023-04-03T07:48:26;98640.00;;;8.60
19040;BMP180;9652;49.014;12.052;2023-04-03T07:50:53;98614.00;;;8.70
19040;BMP180;9652;49.014;12.052;2023-04-03T07:53:20;98636.00;;;8.70
19040;BMP180;9652;49.014;12.052;2023-04-03T07:55:48;98635.00;;;8.70
19040;BMP180;9652;49.014;12.052;2023-04-03T07:58:18;98595.00;;;8.80
19040;BMP180;9652;49.014;12.052;2023-04-03T08:00:46;98640.00;;;8.90
19040;BMP180;9652;49.014;12.052;2023-04-03T08:03:14;98647.00;;;8.90
19040;BMP180;9652;49.014;12.052;2023-04-03T08:05:47;98651.00;;;9.00
19040;BMP180;9652;49.014;12.052;2023-04-03T08:08:17;98656.00;;;9.10
19040;BMP180;9652;49.014;12.052;2023-04-03T08:10:49;98640.00;;;9.20
19040;BMP180;9652;49.014;12.052;2023-04-03T08:13:17;98648.00;;;9.30
19040;BMP180;9652;49.014;12.052;2023-04-03T08:15:44;98642.00;;;9.40
19040;BMP180;9652;49.014;12.052;2023-04-03T08:18:12;98597.00;;;9.50
19040;BMP180;9652;49.014;12.052;2023-04-03T08:20:39;98655.00;;;9.50
19040;BMP180;9652;49.014;12.052;2023-04-03T08:23:09;98603.00;;;9.50
19040;BMP180;9652;49.014;12.052;2023-04-03T08:25:38;98644.00;;;9.60
19040;BMP180;9652;49.014;12.052;2023-04-03T08:28:06;98634.00;;;9.60
19040;BMP180;9652;49.014;12.052;2023-04-03T08:30:34;98625.00;;;9.70
19040;BMP180;9652;49.014;12.052;2023-04-03T08:33:02;98627.00;;;9.70
19040;BMP180;9652;49.014;12.052;2023-04-03T08:35:29;98649.00;;;9.70
19040;BMP180;9652;49.014;12.052;2023-04-03T08:37:56;98604.00;;;9.70
19040;BMP180;9652;49.014;12.052;2023-04-03T08:40:25;98649.00;;;9.70
19040;BMP180;9652;49.014;12.052;2023-04-03T08:43:06;98651.00;;;9.70
19040;BMP180;9652;49.014;12.052;2023-04-03T08:45:47;98656.00;;;9.60
19040;BMP180;9652;49.014;12.052;2023-04-03T08:48:20;98655.00;;;9.50
19040;BMP180;9652;49.014;12.052;2023-04-03T08:50:53;98655.00;;;9.50
19040;BMP180;9652;49.014;12.052;2023-04-03T08:53:25;98644.00;;;9.50
19040;BMP180;9652;49.014;12.052;2023-04-03T08:55:56;98650.00;;;9.40
19040;BMP180;9652;49.014;12.052;2023-04-03T08:58:26;98640.00;;;9.40
19040;BMP180;9652;49.014;12.052;2023-04-03T09:01:00;98590.00;;;9.30
19040;BMP180;9652;49.014;12.052;2023-04-03T09:03:32;98653.00;;;9.30
19040;BMP180;9652;49.014;12.052;2023-04-03T09:06:05;98644.00;;;9.40
19040;BMP180;9652;49.014;12.052;2023-04-03T09:08:40;98636.00;;;9.40
19040;BMP180;9652;49.014;12.052;2023-04-03T09:11:22;98663.00;;;9.50
19040;BMP180;9652;49.014;12.052;2023-04-03T09:13:59;98654.00;;;9.50
19040;BMP180;9652;49.014;12.052;2023-04-03T09:16:40;98672.00;;;9.50
19040;BMP180;9652;49.014;12.052;2023-04-03T09:19:20;98656.00;;;9.60
19040;BMP180;9652;49.014;12.052;2023-04-03T09:21:49;98669.00;;;9.60
19040;BMP180;9652;49.014;12.052;2023-04-03T09:24:17;98673.00;;;9.50
19040;BMP180;9652;49.014;12.052;2023-04-03T09:26:53;98661.00;;;9.50
19040;BMP180;9652;49.014;12.052;2023-04-03T09:29:25;98676.00;;;9.40
19040;BMP180;9652;49.014;12.052;2023-04-03T09:31:56;98665.00;;;9.30
19040;BMP180;9652;49.014;12.052;2023-04-03T09:34:28;98667.00;;;9.30
19040;BMP180;9652;49.014;12.052;2023-04-03T09:36:58;98672.00;;;9.30
19040;BMP180;9652;49.014;12.052;2023-04-03T09:39:49;98674.00;;;9.30
19040;BMP180;9652;49.014;12.052;2023-04-03T09:42:22;98674.00;;;9.30
19040;BMP180;9652;49.014;12.052;2023-04-03T09:44:56;98679.00;;;9.30
19040;BMP180;9652;49.014;12.052;2023-04-03T09:47:26;98667.00;;;9.40
19040;BMP180;9652;49.014;12.052;2023-04-03T09:50:18;98676.00;;;9.60
19040;BMP180;9652;49.014;12.052;2023-04-03T09:52:48;98662.00;;;9.70
19040;BMP180;9652;49.014;12.052;2023-04-03T09:55:19;98664.00;;;9.90
19040;BMP180;9652;49.014;12.052;2023-04-03T09:57:55;98660.00;;;9.90
19040;BMP180;9652;49.014;12.052;2023-04-03T10:00:27;98679.00;;;10.10
19040;BMP180;9652;49.014;12.052;2023-04-03T10:02:58;98680.00;;;10.20
19040;BMP180;9652;49.014;12.052;2023-04-03T10:05:32;98667.00;;;10.40
19040;BMP180;9652;49.014;12.052;2023-04-03T10:08:15;98609.00;;;10.60
19040;BMP180;9652;49.014;12.052;2023-04-03T10:10:48;98653.00;;;10.80
19040;BMP180;9652;49.014;12.052;2023-04-03T10:13:33;98663.00;;;10.90
19040;BMP180;9652;49.014;12.052;2023-04-03T10:16:07;98650.00;;;11.10
19040;BMP180;9652;49.014;12.052;2023-04-03T10:18:42;98652.00;;;11.20
19040;BMP180;9652;49.014;12.052;2023-04-03T10:21:19;98656.00;;;11.40
19040;BMP180;9652;49.014;12.052;2023-04-03T10:24:03;98648.00;;;11.60
19040;BMP180;9652;49.014;12.052;2023-04-03T10:26:44;98653.00;;;11.70
19040;BMP180;9652;49.014;12.052;2023-04-03T10:29:32;98656.00;;;11.90
19040;BMP180;9652;49.014;12.052;2023-04-03T10:32:26;98629.00;;;12.00
19040;BMP180;9652;49.014;12.052;2023-04-03T10:35:08;98654.00;;;12.00
19040;BMP180;9652;49.014;12.052;2023-04-03T10:38:00;98652.00;;;12.00
19040;BMP180;9652;49.014;12.052;2023-04-03T10:40:35;98627.00;;;12.00
19040;BMP180;9652;49.014;12.052;2023-04-03T10:43:10;98653.00;;;12.00
19040;BMP180;9652;49.014;12.052;2023-04-03T10:45:55;98639.00;;;12.10
19040;BMP180;9652;49.014;12.052;2023-04-03T10:48:41;98637.00;;;12.00
19040;BMP180;9652;49.014;12.052;2023-04-03T10:51:24;98657.00;;;11.90
19040;BMP180;9652;49.014;12.052;2023-04-03T10:54:00;98646.00;;;11.80
19040;BMP180;9652;49.014;12.052;2023-04-03T10:56:39;98636.00;;;11.70
19040;BMP180;9652;49.014;12.052;2023-04-03T10:59:18;98650.00;;;11.60
19040;BMP180;9652;49.014;12.052;2023-04-03T11:01:54;98651.00;;;11.50
19040;BMP180;9652;49.014;12.052;2023-04-03T11:04:27;98651.00;;;11.40
19040;BMP180;9652;49.014;12.052;2023-04-03T11:07:01;98656.00;;;11.30
19040;BMP180;9652;49.014;12.052;2023-04-03T11:09:33;98641.00;;;11.20
19040;BMP180;9652;49.014;12.052;2023-04-03T11:12:10;98647.00;;;11.10
19040;BMP180;9652;49.014;12.052;2023-04-03T11:14:38;98638.00;;;11.10
19040;BMP180;9652;49.014;12.052;2023-04-03T11:17:25;98630.00;;;11.10
19040;BMP180;9652;49.014;12.052;2023-04-03T11:20:06;98634.00;;;11.00
19040;BMP180;9652;49.014;12.052;2023-04-03T11:22:39;98631.00;;;11.10
19040;BMP180;9652;49.014;12.052;2023-04-03T11:25:19;98630.00;;;11.10
19040;BMP180;9652;49.014;12.052;2023-04-03T11:27:54;98631.00;;;11.20
19040;BMP180;9652;49.014;12.052;2023-04-03T11:30:28;98608.00;;;11.20
19040;BMP180;9652;49.014;12.052;2023-04-03T11:33:43;98635.00;;;11.10
19040;BMP180;9652;49.014;12.052;2023-04-03T11:36:19;98640.00;;;11.10
19040;BMP180;9652;49.014;12.052;2023-04-03T11:38:51;98633.00;;;10.90
19040;BMP180;9652;49.014;12.052;2023-04-03T11:41:27;98625.00;;;10.90
19040;BMP180;9652;49.014;12.052;2023-04-03T11:44:01;98613.00;;;10.90
19040;BMP180;9652;49.014;12.052;2023-04-03T11:46:52;98628.00;;;11.00
19040;BMP180;9652;49.014;12.052;2023-04-03T11:49:56;98626.00;;;11.10
19040;BMP180;9652;49.014;12.052;2023-04-03T11:52:56;98615.00;;;11.20
19040;BMP180;9652;49.014;12.052;2023-04-03T11:55:45;98615.00;;;11.30
19040;BMP180;9652;49.014;12.052;2023-04-03T11:58:19;98606.00;;;11.30
19040;BMP180;9652;49.014;12.052;2023-04-03T12:01:09;98611.00;;;11.40
19040;BMP180;9652;49.014;12.052;2023-04-03T12:04:07;98611.00;;;11.50
19040;BMP180;9652;49.014;12.052;2023-04-03T12:07:11;98616.00;;;11.50
19040;BMP180;9652;49.014;12.052;2023-04-03T12:10:13;98604.00;;;11.50
19040;BMP180;9652;49.014;12.052;2023-04-03T12:12:42;98607.00;;;11.50
19040;BMP180;9652;49.014;12.052;2023-04-03T12:15:51;98611.00;;;11.60
19040;BMP180;9652;49.014;12.052;2023-04-03T12:19:00;98606.00;;;11.60
19040;BMP180;9652;49.014;12.052;2023-04-03T12:22:17;98603.00;;;11.70
19040;BMP180;9652;49.014;12.052;2023-04-03T12:24:49;98588.00;;;11.80
19040;BMP180;9652;49.014;12.052;2023-04-03T12:27:38;98599.00;;;11.80
19040;BMP180;9652;49.014;12.052;2023-04-03T12:30:18;98599.00;;;11.90
19040;BMP180;9652;49.014;12.052;2023-04-03T12:33:20;98604.00;;;12.00
19040;BMP180;9652;49.014;12.052;2023-04-03T12:36:04;98608.00;;;11.90
19040;BMP180;9652;49.014;12.052;2023-04-03T12:38:58;98596.00;;;11.90
19040;BMP180;9652;49.014;12.052;2023-04-03T12:41:38;98593.00;;;11.90
19040;BMP180;9652;49.014;12.052;2023-04-03T12:44:35;98588.00;;;11.80
19040;BMP180;9652;49.014;12.052;2023-04-03T12:47:26;98602.00;;;11.80
19040;BMP180;9652;49.014;12.052;2023-04-03T12:49:55;98561.00;;;11.70
19040;BMP180;9652;49.014;12.052;2023-04-03T12:52:37;98575.00;;;11.70
19040;BMP180;9652;49.014;12.052;2023-04-03T12:55:18;98585.00;;;11.80
19040;BMP180;9652;49.014;12.052;2023-04-03T12:57:46;98597.00;;;11.90
19040;BMP180;9652;49.014;12.052;2023-04-03T13:00:28;98572.00;;;11.80
19040;BMP180;9652;49.014;12.052;2023-04-03T13:02:56;98579.00;;;11.80
19040;BMP180;9652;49.014;12.052;2023-04-03T13:05:23;98581.00;;;11.80
19040;BMP180;9652;49.014;12.052;2023-04-03T13:07:58;98587.00;;;11.70
19040;BMP180;9652;49.014;12.052;2023-04-03T13:10:29;98593.00;;;11.60
19040;BMP180;9652;49.014;12.052;2023-04-03T13:12:58;98615.00;;;11.60
19040;BMP180;9652;49.014;12.052;2023-04-03T13:15:43;98590.00;;;11.50
19040;BMP180;9652;49.014;12.052;2023-04-03T13:18:29;98593.00;;;11.50
19040;BMP180;9652;49.014;12.052;2023-04-03T13:21:03;98591.00;;;11.50
19040;BMP180;9652;49.014;12.052;2023-04-03T13:23:34;98567.00;;;11.50
19040;BMP180;9652;49.014;12.052;2023-04-03T13:26:04;98582.00;;;11.40
19040;BMP180;9652;49.014;12.052;2023-04-03T13:28:33;98576.00;;;11.40
19040;BMP180;9652;49.014;12.052;2023-04-03T13:31:18;98554.00;;;11.50
19040;BMP180;9652;49.014;12.052;2023-04-03T13:33:57;98562.00;;;11.60
19040;BMP180;9652;49.014;12.052;2023-04-03T13:36:30;98577.00;;;11.70
19040;BMP180;9652;49.014;12.052;2023-04-03T13:39:00;98526.00;;;11.70
19040;BMP180;9652;49.014;12.052;2023-04-03T13:41:39;98584.00;;;11.60
19040;BMP180;9652;49.014;12.052;2023-04-03T13:44:27;98566.00;;;11.60
19040;BMP180;9652;49.014;12.052;2023-04-03T13:46:57;98577.00;;;11.50
19040;BMP180;9652;49.014;12.052;2023-04-03T13:49:34;98575.00;;;11.60
19040;BMP180;9652;49.014;12.052;2023-04-03T13:52:22;98582.00;;;11.70
19040;BMP180;9652;49.014;12.052;2023-04-03T13:54:55;98567.00;;;11.80
19040;BMP180;9652;49.014;12.052;2023-04-03T13:57:24;98567.00;;;12.00
19040;BMP180;9652;49.014;12.052;2023-04-03T13:59:54;98568.00;;;12.20
19040;BMP180;9652;49.014;12.052;2023-04-03T14:02:29;98565.00;;;12.40
19040;BMP180;9652;49.014;12.052;2023-04-03T14:04:59;98556.00;;;12.70
19040;BMP180;9652;49.014;12.052;2023-04-03T14:07:29;98553.00;;;12.90
19040;BMP180;9652;49.014;12.052;2023-04-03T14:09:56;98556.00;;;13.00
19040;BMP180;9652;49.014;12.052;2023-04-03T14:12:31;98569.00;;;12.90
19040;BMP180;9652;49.014;12.052;2023-04-03T14:15:02;98559.00;;;12.80
19040;BMP180;9652;49.014;12.052;2023-04-03T14:17:29;98560.00;;;12.70
19040;BMP180;9652;49.014;12.052;2023-04-03T14:19:57;98564.00;;;12.70
19040;BMP180;9652;49.014;12.052;2023-04-03T14:22:30;98566.00;;;12.80
19040;BMP180;9652;49.014;12.052;2023-04-03T14:24:57;98555.00;;;13.00
19040;BMP180;9652;49.014;12.052;2023-04-03T14:27:29;98509.00;;;13.20
19040;BMP180;9652;49.014;12.052;2023-04-03T14:29:59;98547.00;;;13.30
19040;BMP180;9652;49.014;12.052;2023-04-03T14:32:29;98559.00;;;13.50
19040;BMP180;9652;49.014;12.052;2023-04-03T14:34:56;98553.00;;;13.60
19040;BMP180;9652;49.014;12.052;2023-04-03T14:37:27;98536.00;;;13.60
19040;BMP180;9652;49.014;12.052;2023-04-03T14:39:57;98582.00;;;13.50
19040;BMP180;9652;49.014;12.052;2023-04-03T14:42:29;98537.00;;;13.30
19040;BMP180;9652;49.014;12.052;2023-04-03T14:44:56;98552.00;;;13.30
19040;BMP180;9652;49.014;12.052;2023-04-03T14:47:27;98554.00;;;13.40
19040;BMP180;9652;49.014;12.052;2023-04-03T14:49:55;98542.00;;;13.50